createdAt,value
2022-11-28T00:00:35.234Z,54.03
2022-11-28T00:01:58.410Z,54.28
2022-11-28T00:03:23.205Z,52.58
2022-11-28T00:04:46.232Z,51.10
2022-11-28T00:06:10.709Z,52.20
2022-11-28T00:07:34.928Z,53.13
2022-11-28T00:09:00.619Z,54.92
2022-11-28T00:10:32.693Z,53.15
2022-11-28T00:11:58.325Z,53.70
2022-11-28T00:13:22.148Z,53.78
2022-11-28T00:14:44.922Z,54.30
2022-11-28T00:16:10.608Z,52.53
2022-11-28T00:17:37.097Z,56.30
2022-11-28T00:19:01.740Z,56.90
2022-11-28T00:20:24.011Z,55.08
2022-11-28T00:21:48.603Z,54.42
2022-11-28T00:23:13.727Z,53.10
2022-11-28T00:24:35.990Z,54.45
2022-11-28T00:26:00.803Z,59.58
2022-11-28T00:27:25.555Z,55.97
2022-11-28T00:28:48.977Z,58.95
2022-11-28T00:30:15.656Z,57.30
2022-11-28T00:31:43.029Z,56.20
2022-11-28T00:33:18.386Z,60.30
2022-11-28T00:36:23.714Z,54.95
2022-11-28T00:37:45.839Z,58.17
2022-11-28T00:39:07.075Z,58.00
2022-11-28T00:40:30.274Z,57.20
2022-11-28T00:41:52.717Z,60.53
2022-11-28T00:43:14.036Z,60.33
2022-11-28T00:44:37.971Z,60.17
2022-11-28T00:45:59.546Z,59.90
2022-11-28T00:47:27.984Z,58.60
2022-11-28T00:48:50.047Z,57.92
2022-11-28T00:50:13.941Z,61.63
2022-11-28T00:51:37.224Z,59.47
2022-11-28T00:53:02.020Z,62.38
2022-11-28T00:54:23.255Z,62.88
2022-11-28T00:55:46.337Z,65.10
2022-11-28T00:57:09.049Z,60.75
2022-11-28T00:58:30.706Z,59.60
2022-11-28T00:59:57.478Z,61.83
2022-11-28T01:01:21.852Z,60.58
2022-11-28T01:02:44.597Z,62.17
2022-11-28T01:04:09.913Z,61.90
2022-11-28T01:05:31.775Z,63.83
2022-11-28T01:06:54.292Z,64.90
2022-11-28T01:08:19.071Z,62.78
2022-11-28T01:09:45.667Z,60.55
2022-11-28T01:11:20.701Z,59.45
2022-11-28T01:12:45.720Z,60.63
2022-11-28T01:14:12.084Z,61.55
2022-11-28T01:15:40.512Z,61.00
2022-11-28T01:17:03.288Z,60.30
2022-11-28T01:18:34.385Z,60.30
2022-11-28T01:20:00.335Z,62.03
2022-11-28T01:22:47.267Z,63.17
2022-11-28T01:24:13.252Z,60.45
2022-11-28T01:25:40.571Z,61.30
2022-11-28T01:27:08.942Z,62.42
2022-11-28T01:28:50.724Z,62.78
2022-11-28T01:30:22.108Z,59.47
2022-11-28T01:31:46.082Z,57.08
2022-11-28T01:33:07.672Z,59.33
2022-11-28T01:34:30.155Z,62.55
2022-11-28T01:35:56.206Z,59.63
2022-11-28T01:37:25.159Z,60.90
2022-11-28T01:38:50.382Z,60.58
2022-11-28T01:40:17.212Z,62.25
2022-11-28T01:41:40.735Z,62.22
2022-11-28T01:43:03.354Z,61.90
2022-11-28T01:45:10.921Z,60.85
2022-11-28T01:46:35.105Z,61.05
2022-11-28T01:48:03.229Z,63.70
2022-11-28T01:49:31.607Z,60.97
2022-11-28T01:50:58.276Z,62.88
2022-11-28T01:52:20.969Z,64.82
2022-11-28T01:53:51.717Z,66.00
2022-11-28T01:55:16.919Z,62.00
2022-11-28T01:56:47.317Z,63.42
2022-11-28T01:58:11.245Z,62.63
2022-11-28T01:59:37.841Z,64.88
2022-11-28T02:01:00.641Z,63.38
2022-11-28T02:02:30.096Z,63.90
2022-11-28T02:04:06.139Z,63.85
2022-11-28T02:05:28.683Z,63.20
2022-11-28T02:06:51.232Z,64.32
2022-11-28T02:08:13.716Z,65.60
2022-11-28T02:09:44.174Z,62.00
2022-11-28T02:11:36.155Z,60.65
2022-11-28T02:13:15.392Z,59.58
2022-11-28T02:15:06.205Z,60.65
2022-11-28T02:16:43.735Z,58.58
2022-11-28T02:18:21.183Z,64.38
2022-11-28T02:20:12.499Z,63.22
2022-11-28T02:21:49.023Z,57.38
2022-11-28T02:23:19.539Z,59.47
2022-11-28T02:24:57.441Z,58.58
2022-11-28T02:26:42.282Z,59.63
2022-11-28T02:28:45.796Z,61.88
2022-11-28T02:32:08.612Z,56.08
2022-11-28T02:33:35.327Z,55.95
2022-11-28T02:35:04.840Z,58.83
2022-11-28T02:36:33.418Z,57.15
2022-11-28T02:38:03.703Z,57.55
2022-11-28T02:39:33.145Z,59.13
2022-11-28T02:41:01.258Z,58.92
2022-11-28T02:42:28.523Z,61.17
2022-11-28T02:44:01.436Z,59.30
2022-11-28T02:45:32.309Z,60.17
2022-11-28T02:47:01.296Z,61.13
2022-11-28T02:48:31.871Z,61.00
2022-11-28T02:49:59.802Z,59.17
2022-11-28T02:51:28.581Z,60.92
2022-11-28T02:52:54.629Z,62.67
2022-11-28T02:54:18.917Z,59.92
2022-11-28T02:55:41.657Z,60.92
2022-11-28T02:57:03.613Z,64.07
2022-11-28T02:59:48.815Z,65.13
2022-11-28T03:01:19.400Z,64.68
2022-11-28T03:02:40.611Z,66.15
2022-11-28T03:04:21.912Z,70.00
2022-11-28T03:05:48.473Z,62.88
2022-11-28T03:07:26.116Z,65.35
2022-11-28T03:09:03.214Z,67.43
2022-11-28T03:10:35.089Z,65.82
2022-11-28T03:12:10.814Z,67.20
2022-11-28T03:13:41.534Z,67.40
2022-11-28T03:15:06.592Z,66.03
2022-11-28T03:16:39.297Z,69.10
2022-11-28T03:18:08.975Z,69.25
2022-11-28T03:19:37.187Z,67.03
2022-11-28T03:21:07.904Z,68.47
2022-11-28T03:22:35.093Z,69.85
2022-11-28T03:24:01.499Z,71.43
2022-11-28T03:25:28.684Z,72.00
2022-11-28T03:26:57.360Z,70.38
2022-11-28T03:28:25.179Z,76.53
2022-11-28T03:29:54.191Z,71.82
2022-11-28T03:31:19.228Z,74.68
2022-11-28T03:32:45.918Z,76.22
2022-11-28T03:34:18.496Z,76.95
2022-11-28T03:35:50.696Z,75.15
2022-11-28T03:37:19.511Z,77.90
2022-11-28T03:38:44.596Z,76.88
2022-11-28T03:40:10.198Z,77.18
2022-11-28T03:41:37.095Z,77.43
2022-11-28T03:43:01.861Z,75.55
2022-11-28T03:44:29.389Z,75.57
2022-11-28T03:45:55.859Z,75.88
2022-11-28T03:47:17.988Z,76.60
2022-11-28T03:50:12.542Z,78.50
2022-11-28T03:51:40.025Z,77.13
2022-11-28T03:53:09.112Z,79.38
2022-11-28T03:54:35.744Z,77.88
2022-11-28T03:56:06.410Z,79.93
2022-11-28T03:57:35.067Z,80.30
2022-11-28T03:59:06.105Z,75.95
2022-11-28T04:00:33.587Z,83.28
2022-11-28T04:02:12.517Z,77.47
2022-11-28T04:03:47.672Z,79.45
2022-11-28T04:05:41.945Z,80.63
2022-11-28T04:07:22.964Z,76.18
2022-11-28T04:08:54.249Z,77.68
2022-11-28T04:10:22.440Z,77.40
2022-11-28T04:11:52.430Z,75.43
2022-11-28T04:13:35.222Z,75.97
2022-11-28T04:15:05.691Z,78.55
2022-11-28T04:16:35.716Z,77.47
2022-11-28T04:18:02.539Z,79.00
2022-11-28T04:19:30.686Z,77.45
2022-11-28T04:20:59.702Z,81.25
2022-11-28T04:22:24.969Z,78.80
2022-11-28T04:23:49.919Z,84.70
2022-11-28T04:25:15.544Z,81.13
2022-11-28T04:26:42.714Z,86.90
2022-11-28T04:28:09.620Z,81.50
2022-11-28T04:29:36.035Z,80.78
2022-11-28T04:31:02.962Z,82.18
2022-11-28T04:32:30.541Z,79.68
2022-11-28T04:34:45.648Z,80.85
2022-11-28T04:36:13.807Z,78.93
2022-11-28T04:37:40.146Z,78.78
2022-11-28T04:39:03.038Z,73.38
2022-11-28T04:40:27.164Z,81.10
2022-11-28T04:41:56.082Z,79.75
2022-11-28T04:43:22.360Z,80.70
2022-11-28T04:44:59.429Z,80.63
2022-11-28T04:46:29.224Z,78.75
2022-11-28T04:47:52.417Z,82.43
2022-11-28T04:49:15.554Z,83.03
2022-11-28T04:50:43.954Z,82.97
2022-11-28T04:52:10.282Z,81.32
2022-11-28T04:53:38.437Z,81.07
2022-11-28T04:55:07.367Z,80.22
2022-11-28T04:56:37.639Z,83.63
2022-11-28T04:58:12.010Z,78.78
2022-11-28T04:59:37.503Z,81.97
2022-11-28T05:01:23.577Z,78.57
2022-11-28T05:02:59.643Z,79.55
2022-11-28T05:04:21.747Z,78.78
2022-11-28T05:05:45.985Z,78.60
2022-11-28T05:07:09.662Z,81.00
2022-11-28T05:08:34.907Z,80.03
2022-11-28T05:09:57.845Z,81.18
2022-11-28T05:11:20.242Z,81.55
2022-11-28T05:12:42.346Z,78.13
2022-11-28T05:14:03.616Z,80.25
2022-11-28T05:15:26.000Z,78.32
2022-11-28T05:16:48.508Z,79.72
2022-11-28T05:18:13.011Z,80.60
2022-11-28T05:19:35.813Z,81.78
2022-11-28T05:20:59.167Z,78.90
2022-11-28T05:22:20.882Z,77.55
2022-11-28T05:23:46.288Z,81.32
2022-11-28T05:25:10.727Z,77.57
2022-11-28T05:26:34.348Z,75.05
2022-11-28T05:27:55.318Z,78.55
2022-11-28T05:29:17.497Z,61.90
2022-11-28T05:32:01.956Z,70.00
2022-11-28T05:33:23.517Z,75.60
2022-11-28T05:34:45.991Z,75.28
2022-11-28T05:36:13.225Z,75.90
2022-11-28T05:37:35.765Z,76.50
2022-11-28T05:39:00.173Z,81.88
2022-11-28T05:40:22.219Z,73.22
2022-11-28T05:41:44.532Z,77.28
2022-11-28T05:44:28.339Z,70.17
2022-11-28T05:45:50.338Z,73.22
2022-11-28T05:47:12.696Z,68.45
2022-11-28T05:48:33.531Z,73.38
2022-11-28T05:49:55.632Z,72.63
2022-11-28T05:51:18.130Z,70.57
2022-11-28T05:52:40.546Z,68.47
2022-11-28T05:54:03.905Z,66.50
2022-11-28T05:55:27.681Z,70.90
2022-11-28T05:56:49.982Z,70.43
2022-11-28T05:58:16.605Z,70.10
2022-11-28T05:59:45.390Z,71.18
2022-11-28T06:01:11.766Z,68.10
2022-11-28T06:06:15.292Z,62.08
2022-11-28T06:08:56.369Z,64.63
2022-11-28T06:11:02.034Z,62.65
2022-11-28T06:12:30.979Z,65.07
2022-11-28T06:17:06.199Z,67.13
2022-11-28T06:18:49.616Z,68.43
2022-11-28T06:21:08.374Z,70.90
2022-11-28T06:23:04.203Z,68.90
2022-11-28T06:27:32.742Z,65.13
2022-11-28T06:29:41.729Z,63.17
2022-11-28T06:34:44.017Z,60.50
2022-11-28T06:36:46.078Z,60.28
2022-11-28T06:38:46.755Z,58.17
2022-11-28T06:43:21.285Z,58.92
2022-11-28T07:00:11.806Z,83.40
2022-11-28T07:03:06.335Z,75.88
2022-11-28T07:05:29.521Z,67.35
2022-11-28T07:09:58.965Z,69.95
2022-11-28T07:11:33.891Z,78.07
2022-11-28T07:13:05.323Z,73.43
2022-11-28T07:16:23.459Z,68.03
2022-11-28T07:17:59.768Z,71.63
2022-11-28T07:19:33.355Z,80.03
2022-11-28T07:21:12.912Z,87.05
2022-11-28T07:23:00.030Z,86.45
2022-11-28T07:24:36.971Z,88.75
2022-11-28T07:26:03.176Z,86.43
2022-11-28T07:27:55.243Z,93.85
2022-11-28T07:29:20.928Z,82.65
2022-11-28T07:31:11.845Z,92.22
2022-11-28T07:32:51.908Z,88.72
2022-11-28T07:34:14.937Z,88.55
2022-11-28T07:35:38.715Z,89.47
2022-11-28T07:37:06.367Z,98.68
2022-11-28T07:38:30.041Z,94.50
2022-11-28T07:40:02.547Z,98.43
2022-11-28T07:41:31.373Z,97.45
2022-11-28T07:42:56.742Z,99.53
2022-11-28T07:44:23.399Z,102.22
2022-11-28T07:46:00.578Z,98.30
2022-11-28T07:47:26.948Z,94.82
2022-11-28T07:48:51.359Z,100.70
2022-11-28T07:50:13.832Z,97.55
2022-11-28T07:51:36.876Z,92.97
2022-11-28T07:53:07.167Z,93.07
2022-11-28T07:54:29.949Z,98.57
2022-11-28T07:55:52.595Z,90.93
2022-11-28T07:57:18.981Z,89.18
2022-11-28T07:58:42.516Z,90.00
2022-11-28T08:00:10.893Z,82.45
2022-11-28T08:01:36.994Z,79.63
2022-11-28T08:03:02.251Z,83.43
2022-11-28T08:04:26.165Z,83.82
2022-11-28T08:05:49.957Z,82.60
2022-11-28T08:07:21.665Z,77.63
2022-11-28T08:08:45.620Z,82.45
2022-11-28T08:10:16.351Z,78.85
2022-11-28T08:11:54.742Z,80.53
2022-11-28T08:13:17.088Z,76.47
2022-11-28T08:14:50.144Z,79.18
2022-11-28T08:16:18.437Z,79.95
2022-11-28T08:17:44.086Z,77.15
2022-11-28T08:19:06.387Z,79.15
2022-11-28T08:20:28.533Z,73.68
2022-11-28T08:21:53.965Z,74.65
2022-11-28T08:23:27.770Z,76.38
2022-11-28T08:24:57.837Z,72.13
2022-11-28T08:26:37.013Z,65.55
2022-11-28T08:28:31.619Z,68.68
2022-11-28T08:30:19.075Z,65.07
2022-11-28T08:32:10.753Z,62.20
2022-11-28T08:34:01.691Z,66.00
2022-11-28T08:38:37.417Z,64.43
2022-11-28T08:40:33.950Z,66.72
2022-11-28T08:42:21.231Z,69.50
2022-11-28T08:44:09.697Z,67.82
2022-11-28T08:45:39.801Z,65.25
2022-11-28T08:47:02.337Z,67.07
2022-11-28T08:48:28.249Z,65.53
2022-11-28T08:49:54.324Z,65.85
2022-11-28T08:51:18.726Z,64.88
2022-11-28T08:52:41.476Z,66.20
2022-11-28T08:54:06.410Z,63.40
2022-11-28T08:55:32.154Z,63.05
2022-11-28T08:56:54.839Z,65.47
2022-11-28T08:58:17.124Z,67.22
2022-11-28T08:59:39.507Z,69.45
2022-11-28T09:01:04.316Z,72.15
2022-11-28T09:02:31.006Z,70.88
2022-11-28T09:04:03.814Z,68.85
2022-11-28T09:05:29.758Z,72.70
2022-11-28T09:07:02.928Z,63.78
2022-11-28T09:08:45.459Z,66.90
2022-11-28T09:10:15.219Z,69.07
2022-11-28T09:11:50.319Z,62.83
2022-11-28T09:13:38.583Z,60.03
2022-11-28T09:15:14.263Z,56.65
2022-11-28T09:16:53.915Z,57.35
2022-11-28T09:18:29.410Z,54.08
2022-11-28T09:20:04.797Z,53.65
2022-11-28T09:21:37.870Z,51.08
2022-11-28T09:23:06.590Z,53.30
2022-11-28T09:25:02.458Z,48.13
2022-11-28T09:30:29.191Z,45.13
2022-11-28T09:38:23.523Z,47.17
2022-11-28T09:40:11.933Z,46.58
2022-11-28T09:42:00.969Z,47.78
2022-11-28T09:43:33.744Z,48.78
2022-11-28T09:45:03.598Z,47.80
2022-11-28T09:46:35.986Z,49.53
2022-11-28T09:50:58.701Z,44.38
2022-11-28T09:52:41.304Z,46.67
2022-11-28T09:56:39.439Z,43.70
2022-11-28T09:58:35.461Z,44.10
2022-11-28T10:03:10.914Z,46.60
2022-11-28T10:04:44.183Z,41.88
2022-11-28T10:06:21.648Z,47.38
2022-11-28T10:08:05.362Z,49.90
2022-11-28T10:09:43.470Z,47.10
2022-11-28T10:11:22.300Z,50.75
2022-11-28T10:13:05.378Z,45.33
2022-11-28T10:15:03.456Z,44.90
2022-11-28T10:16:44.310Z,45.50
2022-11-28T10:18:21.741Z,45.47
2022-11-28T10:19:56.943Z,47.55
2022-11-28T10:21:29.919Z,44.03
2022-11-28T10:22:59.006Z,45.55
2022-11-28T10:24:27.398Z,46.28
2022-11-28T10:25:55.003Z,45.85
2022-11-28T10:27:22.574Z,42.05
2022-11-28T10:28:52.694Z,42.60
2022-11-28T10:30:22.809Z,42.67
2022-11-28T10:31:47.246Z,40.20
2022-11-28T10:33:21.828Z,40.78
2022-11-28T10:34:51.098Z,40.70
2022-11-28T10:36:22.662Z,41.90
2022-11-28T10:37:51.500Z,40.40
2022-11-28T10:39:15.283Z,41.50
2022-11-28T10:40:44.410Z,37.90
2022-11-28T10:42:16.834Z,34.83
2022-11-28T10:43:53.937Z,39.88
2022-11-28T10:45:24.819Z,36.28
2022-11-28T10:46:58.397Z,39.45
2022-11-28T10:48:40.149Z,39.63
2022-11-28T10:50:08.335Z,36.67
2022-11-28T10:51:39.737Z,38.03
2022-11-28T10:53:07.840Z,38.38
2022-11-28T10:54:53.553Z,37.22
2022-11-28T10:56:32.953Z,36.70
2022-11-28T10:58:05.639Z,35.20
2022-11-28T10:59:37.933Z,37.05
2022-11-28T11:01:03.743Z,37.20
2022-11-28T11:02:35.299Z,35.85
2022-11-28T11:04:10.365Z,36.85
2022-11-28T11:05:35.213Z,35.40
2022-11-28T11:07:10.593Z,34.40
2022-11-28T11:08:37.271Z,35.80
2022-11-28T11:10:03.950Z,35.28
2022-11-28T11:11:28.964Z,35.92
2022-11-28T11:12:53.794Z,37.72
2022-11-28T11:14:16.107Z,33.28
2022-11-28T11:15:38.559Z,36.67
2022-11-28T11:17:01.066Z,35.45
2022-11-28T11:18:26.529Z,36.08
2022-11-28T11:19:49.519Z,33.28
2022-11-28T11:21:19.047Z,34.47
2022-11-28T11:22:41.448Z,33.42
2022-11-28T11:24:17.386Z,33.67
2022-11-28T11:25:48.138Z,34.30
2022-11-28T11:27:19.411Z,33.60
2022-11-28T11:28:45.185Z,33.83
2022-11-28T11:30:19.980Z,30.63
2022-11-28T11:31:46.270Z,32.47
2022-11-28T11:33:17.264Z,31.98
2022-11-28T11:34:45.586Z,30.25
2022-11-28T11:36:23.935Z,29.95
2022-11-28T11:37:46.416Z,29.75
2022-11-28T11:39:22.206Z,30.50
2022-11-28T11:40:48.078Z,31.05
2022-11-28T11:42:21.528Z,29.23
2022-11-28T11:43:48.655Z,29.30
2022-11-28T11:45:34.533Z,30.13
2022-11-28T11:47:03.708Z,28.88
2022-11-28T11:48:37.152Z,33.30
2022-11-28T11:50:19.290Z,32.50
2022-11-28T11:51:43.167Z,31.75
2022-11-28T11:53:14.577Z,30.13
2022-11-28T11:54:39.604Z,30.23
2022-11-28T11:56:04.767Z,30.05
2022-11-28T11:57:34.389Z,29.20
2022-11-28T11:59:00.495Z,29.77
2022-11-28T12:00:27.571Z,26.50
2022-11-28T12:02:01.537Z,27.35
2022-11-28T12:03:34.145Z,27.55
2022-11-28T12:05:02.694Z,27.88
2022-11-28T12:06:29.650Z,25.73
2022-11-28T12:08:02.638Z,28.15
2022-11-28T12:09:40.878Z,26.30
2022-11-28T12:11:17.444Z,27.17
2022-11-28T12:12:40.462Z,27.60
2022-11-28T12:14:29.081Z,27.67
2022-11-28T12:16:00.483Z,26.98
2022-11-28T12:17:50.803Z,27.23
2022-11-28T12:19:31.828Z,28.20
2022-11-28T12:21:09.946Z,27.70
2022-11-28T12:22:39.652Z,27.90
2022-11-28T12:24:22.215Z,27.38
2022-11-28T12:27:26.345Z,27.10
2022-11-28T12:29:13.350Z,31.92
2022-11-28T12:30:55.423Z,28.88
2022-11-28T12:32:33.176Z,30.48
2022-11-28T12:34:18.002Z,30.42
2022-11-28T12:35:48.794Z,29.17
2022-11-28T12:37:32.992Z,27.42
2022-11-28T12:39:16.327Z,27.88
2022-11-28T12:40:54.992Z,28.13
2022-11-28T12:42:43.381Z,27.90
2022-11-28T12:44:17.076Z,26.17
2022-11-28T12:45:48.357Z,27.10
2022-11-28T12:47:24.090Z,32.15
2022-11-28T12:49:03.390Z,30.20
2022-11-28T12:50:33.798Z,26.80
2022-11-28T12:52:14.105Z,27.40
2022-11-28T12:54:05.842Z,26.13
2022-11-28T12:55:36.287Z,27.85
2022-11-28T12:57:08.605Z,26.48
2022-11-28T12:58:36.284Z,26.20
2022-11-28T13:00:08.973Z,26.30
2022-11-28T13:01:53.753Z,26.95
2022-11-28T13:03:49.457Z,27.33
2022-11-28T13:05:24.426Z,27.52
2022-11-28T13:06:57.428Z,28.35
2022-11-28T13:08:48.184Z,27.55
2022-11-28T13:10:21.836Z,28.25
2022-11-28T13:11:57.003Z,29.85
2022-11-28T13:13:26.767Z,29.80
2022-11-28T13:14:56.957Z,27.33
2022-11-28T13:16:27.681Z,29.90
2022-11-28T13:18:03.503Z,30.88
2022-11-28T13:19:38.278Z,28.65
2022-11-28T13:21:41.118Z,30.52
2022-11-28T13:23:29.094Z,31.50
2022-11-28T13:25:22.439Z,30.98
2022-11-28T13:27:06.354Z,31.98
2022-11-28T13:34:45.256Z,31.42
2022-11-28T13:42:03.495Z,28.25
2022-11-28T13:49:27.792Z,26.00
2022-11-28T13:51:30.595Z,26.33
2022-11-28T13:53:03.034Z,27.10
2022-11-28T13:54:46.586Z,28.90
2022-11-28T13:56:30.453Z,27.25
2022-11-28T13:58:01.206Z,26.67
2022-11-28T14:01:45.106Z,25.73
2022-11-28T14:03:17.356Z,25.20
2022-11-28T14:06:44.949Z,26.73
2022-11-28T14:08:08.552Z,26.52
2022-11-28T14:09:44.971Z,29.00
2022-11-28T14:11:28.206Z,27.08
2022-11-28T14:13:13.898Z,30.08
2022-11-28T14:15:06.894Z,29.00
2022-11-28T14:16:51.411Z,29.38
2022-11-28T14:18:56.883Z,29.80
2022-11-28T14:21:00.301Z,28.00
2022-11-28T14:23:46.088Z,29.00
2022-11-28T14:26:16.231Z,29.23
2022-11-28T14:30:37.222Z,29.60
2022-11-28T14:32:40.450Z,29.00
2022-11-28T14:43:44.330Z,30.40
2022-11-28T14:58:36.176Z,29.33
2022-11-28T15:00:46.909Z,29.83
2022-11-28T15:03:01.337Z,28.85
2022-11-28T15:05:23.618Z,34.30
2022-11-28T15:08:57.476Z,31.90
2022-11-28T15:10:56.680Z,30.75
2022-11-28T15:15:20.902Z,30.27
2022-11-28T15:17:37.450Z,28.70
2022-11-28T15:19:16.692Z,28.63
2022-11-28T15:20:54.209Z,29.55
2022-11-28T15:25:46.028Z,31.55
2022-11-28T15:27:39.758Z,32.38
2022-11-28T15:29:23.397Z,29.15
2022-11-28T15:33:50.882Z,30.67
2022-11-28T15:35:16.903Z,29.92
2022-11-28T15:36:40.954Z,32.58
2022-11-28T15:38:15.566Z,32.22
2022-11-28T15:39:42.424Z,31.27
2022-11-28T15:41:30.655Z,32.30
2022-11-28T15:42:59.037Z,30.77
2022-11-28T15:44:29.947Z,31.85
2022-11-28T15:51:59.054Z,43.63
2022-11-28T15:55:08.722Z,65.15
2022-11-28T15:57:09.862Z,49.08
2022-11-28T15:59:45.229Z,38.60
2022-11-28T16:04:20.335Z,32.40
2022-11-28T16:05:53.025Z,34.00
2022-11-28T16:08:27.521Z,37.85
2022-11-28T16:10:40.585Z,35.47
2022-11-28T16:12:20.609Z,34.85
2022-11-28T16:19:41.502Z,39.30
2022-11-28T16:22:01.689Z,38.47
2022-11-28T16:23:41.909Z,41.20
2022-11-28T16:26:09.573Z,44.90
2022-11-28T16:27:55.339Z,39.30
2022-11-28T16:31:45.939Z,45.50
2022-11-28T16:33:38.905Z,42.42
2022-11-28T16:49:31.600Z,33.47
2022-11-28T16:53:51.883Z,33.70
2022-11-28T16:56:38.446Z,35.85
2022-11-28T16:58:16.077Z,36.65
2022-11-28T16:59:48.876Z,35.22
2022-11-28T17:04:01.215Z,37.13
2022-11-28T17:05:26.226Z,36.78
2022-11-28T17:06:49.411Z,37.03
2022-11-28T17:08:11.635Z,37.60
2022-11-28T17:09:41.485Z,36.80
2022-11-28T17:11:03.092Z,37.80
2022-11-28T17:12:30.614Z,40.08
2022-11-28T17:13:57.786Z,37.30
2022-11-28T17:15:23.786Z,35.00
2022-11-28T17:16:46.618Z,46.88
2022-11-28T17:18:52.729Z,48.15
2022-11-28T17:20:15.147Z,58.42
2022-11-28T17:21:42.395Z,47.72
2022-11-28T17:23:06.104Z,58.97
2022-11-28T17:24:31.066Z,44.20
2022-11-28T17:25:52.324Z,36.75
2022-11-28T17:27:15.593Z,35.80
2022-11-28T17:28:37.269Z,36.20
2022-11-28T17:29:59.790Z,34.13
2022-11-28T17:31:25.570Z,35.25
2022-11-28T17:32:49.345Z,34.53
2022-11-28T17:34:17.227Z,34.97
2022-11-28T17:35:42.979Z,35.50
2022-11-28T17:37:06.940Z,34.22
2022-11-28T17:38:33.906Z,37.17
2022-11-28T17:40:15.534Z,33.22
2022-11-28T17:41:37.838Z,34.55
2022-11-28T17:43:01.374Z,34.58
2022-11-28T17:44:25.455Z,34.17
2022-11-28T17:45:49.122Z,34.60
2022-11-28T17:47:12.295Z,34.42
2022-11-28T17:48:37.781Z,35.40
2022-11-28T17:50:00.053Z,32.60
2022-11-28T17:51:22.477Z,35.20
2022-11-28T17:52:47.053Z,34.38
2022-11-28T17:54:09.521Z,35.75
2022-11-28T17:55:32.052Z,35.30
2022-11-28T17:56:55.207Z,33.28
2022-11-28T17:58:20.275Z,33.28
2022-11-28T17:59:43.099Z,32.92
2022-11-28T18:01:10.838Z,31.83
2022-11-28T18:02:35.090Z,30.67
2022-11-28T18:04:01.256Z,29.95
2022-11-28T18:05:42.514Z,29.75
2022-11-28T18:07:04.775Z,31.30
2022-11-28T18:08:29.967Z,29.25
2022-11-28T18:09:52.854Z,28.25
2022-11-28T18:11:18.326Z,28.85
2022-11-28T18:12:41.499Z,29.70
2022-11-28T18:14:06.401Z,28.55
2022-11-28T18:15:34.065Z,29.88
2022-11-28T18:16:56.965Z,27.75
2022-11-28T18:18:22.665Z,28.75
2022-11-28T18:21:30.704Z,30.58
2022-11-28T18:22:53.518Z,30.08
2022-11-28T18:24:20.203Z,31.02
2022-11-28T18:25:45.932Z,31.67
2022-11-28T18:27:09.352Z,30.98
2022-11-28T18:28:35.767Z,30.98
2022-11-28T18:30:01.760Z,31.90
2022-11-28T18:33:14.514Z,31.55
2022-11-28T18:34:36.887Z,32.60
2022-11-28T18:36:11.679Z,31.10
2022-11-28T18:37:38.032Z,41.67
2022-11-28T18:39:07.374Z,53.08
2022-11-28T18:40:34.137Z,39.63
2022-11-28T18:41:56.562Z,36.47
2022-11-28T18:43:22.106Z,41.70
2022-11-28T18:44:44.929Z,34.03
2022-11-28T18:46:11.045Z,36.78
2022-11-28T18:47:34.586Z,36.42
2022-11-28T18:48:58.618Z,36.40
2022-11-28T18:50:21.048Z,33.47
2022-11-28T18:51:54.033Z,33.05
2022-11-28T18:53:18.940Z,33.50
2022-11-28T18:54:43.529Z,36.15
2022-11-28T18:56:19.107Z,33.75
2022-11-28T18:57:44.009Z,31.65
2022-11-28T18:59:06.322Z,34.00
2022-11-28T19:00:29.566Z,33.58
2022-11-28T19:01:52.764Z,35.85
2022-11-28T19:03:15.268Z,33.35
2022-11-28T19:04:37.503Z,38.22
2022-11-28T19:06:01.332Z,35.45
2022-11-28T19:07:29.244Z,40.05
2022-11-28T19:08:55.199Z,39.25
2022-11-28T19:10:18.021Z,38.10
2022-11-28T19:11:42.295Z,40.08
2022-11-28T19:13:05.654Z,39.47
2022-11-28T19:14:28.454Z,39.83
2022-11-28T19:15:53.922Z,38.90
2022-11-28T19:17:21.843Z,38.00
2022-11-28T19:19:05.613Z,37.10
2022-11-28T19:20:37.699Z,37.55
2022-11-28T19:22:02.390Z,37.58
2022-11-28T19:23:26.896Z,38.67
2022-11-28T19:24:51.737Z,37.40
2022-11-28T19:26:19.545Z,38.83
2022-11-28T19:27:46.782Z,36.90
2022-11-28T19:29:09.113Z,35.25
2022-11-28T19:30:32.837Z,35.67
2022-11-28T19:31:56.353Z,36.63
2022-11-28T19:33:31.581Z,32.75
2022-11-28T19:35:46.680Z,36.10
2022-11-28T19:37:20.996Z,35.67
2022-11-28T19:38:43.569Z,34.67
2022-11-28T19:40:10.525Z,35.72
2022-11-28T19:41:38.084Z,34.83
2022-11-28T19:43:04.325Z,37.72
2022-11-28T19:44:29.206Z,35.40
2022-11-28T19:45:57.805Z,35.40
2022-11-28T19:47:20.683Z,36.25
2022-11-28T19:48:44.265Z,37.63
2022-11-28T19:50:11.016Z,36.45
2022-11-28T19:51:32.722Z,36.75
2022-11-28T19:52:55.364Z,38.28
2022-11-28T19:54:27.357Z,37.22
2022-11-28T19:55:51.503Z,37.70
2022-11-28T19:57:13.949Z,38.90
2022-11-28T19:58:38.115Z,40.40
2022-11-28T20:00:00.956Z,38.90
2022-11-28T20:01:25.136Z,40.15
2022-11-28T20:02:50.411Z,40.33
2022-11-28T20:04:13.851Z,38.60
2022-11-28T20:05:37.512Z,38.42
2022-11-28T20:07:00.215Z,37.05
2022-11-28T20:08:25.059Z,37.38
2022-11-28T20:09:47.692Z,37.63
2022-11-28T20:11:11.160Z,36.47
2022-11-28T20:12:34.166Z,35.88
2022-11-28T20:14:03.275Z,36.67
2022-11-28T20:15:30.470Z,35.83
2022-11-28T20:16:56.819Z,38.58
2022-11-28T20:18:26.787Z,35.80
2022-11-28T20:19:49.307Z,36.20
2022-11-28T20:21:19.648Z,36.20
2022-11-28T20:22:44.111Z,34.33
2022-11-28T20:24:08.514Z,36.90
2022-11-28T20:25:34.005Z,36.22
2022-11-28T20:26:57.316Z,39.45
2022-11-28T20:28:18.224Z,37.70
2022-11-28T20:29:42.791Z,39.67
2022-11-28T20:31:06.398Z,37.47
2022-11-28T20:32:30.488Z,37.40
2022-11-28T20:33:54.298Z,38.70
2022-11-28T20:35:19.483Z,37.08
2022-11-28T20:36:42.229Z,37.80
2022-11-28T20:38:06.127Z,38.58
2022-11-28T20:39:36.001Z,42.13
2022-11-28T20:41:02.409Z,38.08
2022-11-28T20:42:43.837Z,39.00
2022-11-28T20:44:09.381Z,38.30
2022-11-28T20:45:49.415Z,38.70
2022-11-28T20:47:15.917Z,37.28
2022-11-28T20:48:37.790Z,37.88
2022-11-28T20:50:00.135Z,39.45
2022-11-28T20:51:25.572Z,37.88
2022-11-28T20:52:52.609Z,40.55
2022-11-28T20:54:16.056Z,40.08
2022-11-28T20:55:37.096Z,37.95
2022-11-28T20:58:45.406Z,40.28
2022-11-28T21:00:13.849Z,38.58
2022-11-28T21:01:38.570Z,39.60
2022-11-28T21:03:00.691Z,38.67
2022-11-28T21:04:22.766Z,39.40
2022-11-28T21:05:48.717Z,39.85
2022-11-28T21:07:12.180Z,39.78
2022-11-28T21:08:35.202Z,40.90
2022-11-28T21:10:04.009Z,39.83
2022-11-28T21:13:12.453Z,40.33
2022-11-28T21:14:34.513Z,42.88
2022-11-28T21:17:23.894Z,38.30
2022-11-28T21:18:49.606Z,40.28
2022-11-28T21:20:13.619Z,42.10
2022-11-28T21:21:40.401Z,40.13
2022-11-28T21:23:12.158Z,40.70
2022-11-28T21:24:34.275Z,39.78
2022-11-28T21:25:57.107Z,40.95
2022-11-28T21:27:24.906Z,41.65
2022-11-28T21:28:49.224Z,41.30
2022-11-28T21:30:12.176Z,41.13
2022-11-28T21:34:53.374Z,38.10
2022-11-28T21:36:36.032Z,38.78
2022-11-28T21:37:58.900Z,37.00
2022-11-28T21:39:25.689Z,39.70
2022-11-28T21:40:53.555Z,42.08
2022-11-28T21:42:20.718Z,40.22
2022-11-28T21:43:43.212Z,39.38
2022-11-28T21:46:32.908Z,38.40
2022-11-28T21:47:55.175Z,40.03
2022-11-28T21:49:20.583Z,40.47
2022-11-28T21:50:48.543Z,39.10
2022-11-28T21:52:11.844Z,38.70
2022-11-28T21:53:34.943Z,39.55
2022-11-28T21:54:57.361Z,39.72
2022-11-28T21:56:22.070Z,40.25
2022-11-28T21:57:44.358Z,40.28
2022-11-28T21:59:06.679Z,43.00
2022-11-28T22:02:15.422Z,38.33
2022-11-28T22:03:39.073Z,39.67
2022-11-28T22:05:07.984Z,42.40
2022-11-28T22:06:31.734Z,40.92
2022-11-28T22:07:55.981Z,45.10
2022-11-28T22:09:20.361Z,43.92
2022-11-28T22:10:44.295Z,43.80
2022-11-28T22:12:07.474Z,43.83
2022-11-28T22:13:33.558Z,43.10
2022-11-28T22:14:58.411Z,44.00
2022-11-28T22:16:24.056Z,42.53
2022-11-28T22:17:48.444Z,45.40
2022-11-28T22:19:10.771Z,46.80
2022-11-28T22:20:43.575Z,42.40
2022-11-28T22:22:07.922Z,39.63
2022-11-28T22:23:30.577Z,42.38
2022-11-28T22:24:54.206Z,43.25
2022-11-28T22:26:19.014Z,44.10
2022-11-28T22:27:41.330Z,45.90
2022-11-28T22:29:05.293Z,41.05
2022-11-28T22:30:31.107Z,44.03
2022-11-28T22:31:59.310Z,43.88
2022-11-28T22:33:21.675Z,46.00
2022-11-28T22:34:44.153Z,44.63
2022-11-28T22:36:08.322Z,44.42